Main page
METAR-TAF:

METAR-TAF

Airports :

San Marcos Regional Airport

San Marcos, Texas, United States

latitude: 29-53-37N, longitude: 097-51-53W, elevation: 597 ft

Current weather observation

The report was made 1 hour and 11 minutes ago, at 10:56 UTC
Wind 8 mph from the East
Temperature 75°F
Humidity 100%
Pressure 30.02 in. Hg
Visibility: 10 miles
Broken clouds at a height of 900 ft
Overcast at a height of 1400 ft
rain

METAR: KHYI 201056Z AUTO 08007KT 10SM RA BKN009 OVC014 24/24 A3002 RMK AO2 CIG 006V011 SLP160 P0000 T02390239

Time: 07:07 (12:07 UTC)


TAF: missing

Weather observations and forecasts of more than 4000 airports (METAR and TAF reports).

The available stations are represented by yellow and red dots on the map.

Hover mouse over dot to see the name of the station.

Then click to see weather observations and forecasts.

To change the map : click on the green buttons with a black cross to zoom in, on the green button with a dash to zoom out, or on the green arrows for adjacent maps.


METAR-TAF: